Port Clyde, ME (04855)

11:59 AM EST on December 10, 2016 (GMT -0500)
Blueberry Cove Camp | | Change Station

Elev 56 ft 43.96 °N, 69.21 °W | Updated 54 seconds ago

Clear
Clear
24.0 °F
Feels Like 18 °F
N
4.7
Wind Variable Wind from North
Gusts 23.0 mph

Today
High -- | Low -- °F
--% Chance of Precip.
Yesterday
High -- | Low -- °F
Precip. -- in
Pressure 30.17 in
Visibility 10.0 miles
Clouds Clear
Windchill 18 °F
Dew Point 4 °F
Humidity 42%
Rainfall 0.00 in
Snow Depth Not available.
7:00 AM 3:59 PM
Waxing Gibbous, 85% visible
METAR KRKD 101656Z AUTO 29015G20KT 10SM CLR M05/M16 A3016 RMK AO2 SLP216 T10501161 FZRANO
Pressure 30.17 in
Visibility 10.0 miles
Clouds Clear
Windchill 18 °F
Dew Point 4 °F
Humidity 42%
Rainfall 0.00 in
Snow Depth Not available.
7:00 AM 3:59 PM
Waxing Gibbous, 85% visible
METAR KRKD 101656Z AUTO 29015G20KT 10SM CLR M05/M16 A3016 RMK AO2 SLP216 T10501161 FZRANO

10-Day Weather Forecast

Almanac

Astronomy

Dec. 10, 2016 Rise Set
Actual Time
Civil Twilight
Nautical Twilight
Astronomical Twilight
Moon
Length of Visible Light
Length of Day
Tomorrow will be .
, % of the Moon is Illuminated

Today's Extremes

State Highs State Lows

Community

WunderPhotos

Upload Photos

1,956,569 photos uploaded!

WunderBlog® & News

Nearby

Air Quality

  Air Quality AQ Index Pollutant
Not available.

Snow Depth

Station Depth Elevation

Earthquake Activity

City Distance Mag. Time & Date
Minimum magnitude displayed is 2.5.

Coastal Water Temperatures

Place Temperature

Stations

Nearby Weather Stations

Station Location Temp. Windchill Dew Point Humidity Wind Precip. Elev Updated Type
                   

Watches & Warnings

There are currently no watches in effect.